Observation data for Olton on 03/05/2021      Previous  Date  Next       Current Mesonet Observations  Soil Data  Daily Summary Page  Observations in Plain Language
KONS 050600Z 29018KT 10/M06 A2995 RMK A01 T01021055  RH  033%=      5-min Rain = 0
KONS 050605Z 29016G21KT 10/M06 A2995 RMK A01 T00991056  RH  033%=      5-min Rain = 0
KONS 050610Z 29017G22KT 10/M06 A2995 RMK A01 T00961055  RH  034%=      5-min Rain = 0
KONS 050615Z 30016G21KT 09/M05 A2996 RMK A01 T00881054  RH  036%=      5-min Rain = 0
KONS 050620Z 29017KT 08/M05 A2996 RMK A01 T00821053  RH  038%=      5-min Rain = 0
KONS 050625Z 29017KT 08/M05 A2996 RMK A01 T00781053  RH  039%=      5-min Rain = 0
KONS 050630Z 29017KT 08/M05 A2996 RMK A01 T00751053  RH  040%=      5-min Rain = 0
KONS 050635Z 29016KT 07/M05 A2996 RMK A01 T00731054  RH  040%=      5-min Rain = 0
KONS 050640Z 29015KT 07/M05 A2996 RMK A01 T00711054  RH  041%=      5-min Rain = 0
KONS 050645Z 29015KT 07/M05 A2996 RMK A01 T00691053  RH  042%=      5-min Rain = 0
KONS 050650Z 29014KT 07/M05 A2996 RMK A01 T00671053  RH  042%=      5-min Rain = 0
KONS 050655Z 29014KT 07/M05 A2996 RMK A01 T00651053  RH  043%=      5-min Rain = 0
KONS 050700Z 30013KT 06/M05 A2997 RMK A01 T00601053  RH  044%=      5-min Rain = 0
KONS 050705Z 30013KT 06/M05 A2997 RMK A01 T00581052  RH  045%=      5-min Rain = 0
KONS 050710Z 30012KT 06/M05 A2997 RMK A01 T00581051  RH  045%=      5-min Rain = 0
KONS 050715Z 30012KT 06/M05 A2997 RMK A01 T00581050  RH  046%=      5-min Rain = 0
KONS 050720Z 30012KT 06/M05 A2997 RMK A01 T00571050  RH  046%=      5-min Rain = 0
KONS 050725Z 30011KT 05/M05 A2997 RMK A01 T00541051  RH  047%=      5-min Rain = 0
KONS 050730Z 30011KT 05/M05 A2997 RMK A01 T00501052  RH  048%=      5-min Rain = 0
KONS 050735Z 30011KT 05/M05 A2997 RMK A01 T00491051  RH  049%=      5-min Rain = 0
KONS 050740Z 30011KT 05/M05 A2997 RMK A01 T00481050  RH  049%=      5-min Rain = 0
KONS 050745Z 30012KT 05/M05 A2998 RMK A01 T00491046  RH  051%=      5-min Rain = 0
KONS 050750Z 31012KT 05/M04 A2998 RMK A01 T00511040  RH  052%=      5-min Rain = 0
KONS 050755Z 31012KT 05/M04 A2998 RMK A01 T00511039  RH  053%=      5-min Rain = 0
KONS 050800Z 31012KT 05/M04 A2998 RMK A01 T00511038  RH  053%=      5-min Rain = 0
KONS 050805Z 31012KT 05/M04 A2998 RMK A01 T00511037  RH  053%=      5-min Rain = 0
KONS 050810Z 31012KT 05/M04 A2998 RMK A01 T00491035  RH  055%=      5-min Rain = 0
KONS 050815Z 31012KT 05/M03 A2998 RMK A01 T00481032  RH  056%=      5-min Rain = 0
KONS 050820Z 31012KT 05/M03 A2998 RMK A01 T00481030  RH  057%=      5-min Rain = 0
KONS 050825Z 31012KT 05/M03 A2998 RMK A01 T00481030  RH  057%=      5-min Rain = 0
KONS 050830Z 31013KT 05/M03 A2998 RMK A01 T00481030  RH  057%=      5-min Rain = 0
KONS 050835Z 31012KT 05/M03 A2998 RMK A01 T00471031  RH  057%=      5-min Rain = 0
KONS 050840Z 31012KT 05/M03 A2998 RMK A01 T00461031  RH  058%=      5-min Rain = 0
KONS 050845Z 31012KT 05/M03 A2998 RMK A01 T00481028  RH  058%=      5-min Rain = 0
KONS 050850Z 31013KT 05/M03 A2998 RMK A01 T00481028  RH  058%=      5-min Rain = 0
KONS 050855Z 31012KT 05/M03 A2998 RMK A01 T00461029  RH  059%=      5-min Rain = 0
KONS 050900Z 31012KT 05/M03 A2998 RMK A01 T00451028  RH  059%=      5-min Rain = 0
KONS 050905Z 30012KT 05/M03 A2998 RMK A01 T00461028  RH  059%=      5-min Rain = 0
KONS 050910Z 30011KT 05/M03 A2999 RMK A01 T00461026  RH  060%=      5-min Rain = 0
KONS 050915Z 30011KT 05/M03 A2999 RMK A01 T00481026  RH  059%=      5-min Rain = 0
KONS 050920Z 31013G18KT 05/M02 A2999 RMK A01 T00491024  RH  059%=      5-min Rain = 0
KONS 050925Z 30014KT 05/M02 A2998 RMK A01 T00511024  RH  059%=      5-min Rain = 0
KONS 050930Z 30013KT 05/M03 A2998 RMK A01 T00501025  RH  059%=      5-min Rain = 0
KONS 050935Z 31015KT 05/M02 A2999 RMK A01 T00511023  RH  059%=      5-min Rain = 0
KONS 050940Z 31018KT 05/M02 A2998 RMK A01 T00531022  RH  059%=      5-min Rain = 0
KONS 050945Z 31019KT 05/M02 A2998 RMK A01 T00531020  RH  060%=      5-min Rain = 0
KONS 050950Z 31020G26KT 05/M02 A2998 RMK A01 T00531018  RH  060%=      5-min Rain = 0
KONS 050955Z 31021G28KT 05/M02 A2998 RMK A01 T00531016  RH  061%=      5-min Rain = 0
KONS 051000Z 31021KT 06/M01 A2998 RMK A01 T00571012  RH  062%=      5-min Rain = 0
KONS 051005Z 31019KT 06/M01 A2998 RMK A01 T00561014  RH  061%=      5-min Rain = 0
KONS 051010Z 30019G24KT 05/M02 A2999 RMK A01 T00511019  RH  061%=      5-min Rain = 0
KONS 051015Z 30018KT 05/M02 A2999 RMK A01 T00471021  RH  062%=      5-min Rain = 0
KONS 051020Z 30019G25KT 05/M02 A2999 RMK A01 T00461019  RH  063%=      5-min Rain = 0
KONS 051025Z 31019G24KT 05/M02 A2999 RMK A01 T00481016  RH  064%=      5-min Rain = 0
KONS 051030Z 31018G23KT 05/M01 A2999 RMK A01 T00481014  RH  065%=      5-min Rain = 0
KONS 051035Z 31018KT 05/M01 A30 RMK A01 T00491011  RH  066%=      5-min Rain = 0
KONS 051040Z 31017KT 05/M01 A30 RMK A01 T00511009  RH  066%=      5-min Rain = 0
KONS 051045Z 31017G22KT 05/M01 A30 RMK A01 T00511007  RH  066%=      5-min Rain = 0
KONS 051050Z 31017G22KT 05/M01 A30 RMK A01 T00501008  RH  067%=      5-min Rain = 0
KONS 051055Z 31019G24KT 05/M01 A30 RMK A01 T00521005  RH  067%=      5-min Rain = 0
KONS 051100Z 32020KT 05/M00 A30 RMK A01 T00541004  RH  067%=      5-min Rain = 0
KONS 051105Z 31020KT 05/M00 A30 RMK A01 T00521004  RH  068%=      5-min Rain = 0
KONS 051110Z 32020G25KT 05/M00 A3001 RMK A01 T00531001  RH  069%=      5-min Rain = 0
KONS 051115Z 31019KT 06/00 A3001 RMK A01 T00550002  RH  069%=      5-min Rain = 0
KONS 051120Z 31018KT 06/00 A3001 RMK A01 T00560003  RH  069%=      5-min Rain = 0
KONS 051125Z 31018G23KT 06/00 A3002 RMK A01 T00580004  RH  069%=      5-min Rain = 0
KONS 051130Z 31019G24KT 06/00 A3002 RMK A01 T00580004  RH  069%=      5-min Rain = 0
KONS 051135Z 31018KT 06/00 A3002 RMK A01 T00580004  RH  069%=      5-min Rain = 0
KONS 051140Z 31019KT 06/01 A3002 RMK A01 T00600007  RH  069%=      5-min Rain = 0
KONS 051145Z 31018KT 06/01 A3003 RMK A01 T00640007  RH  068%=      5-min Rain = 0
KONS 051150Z 31017KT 07/01 A3003 RMK A01 T00650008  RH  068%=      5-min Rain = 0
KONS 051155Z 31016KT 07/01 A3003 RMK A01 T00660008  RH  068%=      5-min Rain = 0
KONS 051200Z 31016KT 07/01 A3004 RMK A01 T00670010  RH  068%=      5-min Rain = 0
KONS 051205Z 31016KT 07/01 A3004 RMK A01 T00680011  RH  068%=      5-min Rain = 0
KONS 051210Z 31017KT 07/01 A3004 RMK A01 T00700013  RH  068%=      5-min Rain = 0
KONS 051215Z 31017G22KT 07/02 A3004 RMK A01 T00720015  RH  068%=      5-min Rain = 0
KONS 051220Z 31019G24KT 07/02 A3004 RMK A01 T00740017  RH  068%=      5-min Rain = 0
KONS 051225Z 31020G26KT 08/02 A3004 RMK A01 T00770019  RH  068%=      5-min Rain = 0
KONS 051230Z 31020G26KT 08/02 A3004 RMK A01 T00780020  RH  068%=      5-min Rain = 0
KONS 051235Z 31021G27KT 08/02 A3004 RMK A01 T00790020  RH  068%=      5-min Rain = 0
KONS 051240Z 31021G28KT 08/02 A3004 RMK A01 T00790020  RH  068%=      5-min Rain = 0
KONS 051245Z 32021G29KT 08/02 A3005 RMK A01 T00790021  RH  068%=      5-min Rain = 0
KONS 051250Z 32022G29KT 08/02 A3005 RMK A01 T00790022  RH  068%=      5-min Rain = 0
KONS 051255Z 32019G29KT 08/02 A3005 RMK A01 T00790023  RH  069%=      5-min Rain = 0
KONS 051300Z 32022G28KT 08/03 A3005 RMK A01 T00800026  RH  070%=      5-min Rain = 0
KONS 051305Z 32022G30KT 08/03 A3005 RMK A01 T00790027  RH  071%=      5-min Rain = 0
KONS 051310Z 32022G30KT 08/03 A3005 RMK A01 T00790028  RH  071%=      5-min Rain = 0
KONS 051315Z 32022G31KT 08/03 A3005 RMK A01 T00790031  RH  073%=      5-min Rain = 0
KONS 051320Z 33023G34KT 08/04 A3005 RMK A01 T00790035  RH  075%=      5-min Rain = 0
KONS 051325Z 32024G33KT 08/04 A3005 RMK A01 T00790039  RH  078%=      5-min Rain = 0
KONS 051330Z 33022G28KT 08/04 A3006 RMK A01 T00790042  RH  079%=      5-min Rain = 0
KONS 051335Z 33023G30KT 08/04 A3006 RMK A01 T00790044  RH  081%=      5-min Rain = 0
KONS 051340Z 33022G27KT 08/05 A3006 RMK A01 T00790046  RH  082%=      5-min Rain = 0
KONS 051345Z 33023G30KT 08/05 A3006 RMK A01 T00790048  RH  083%=      5-min Rain = 0
KONS 051350Z 33024G33KT 08/05 A3006 RMK A01 T00790049  RH  083%=      5-min Rain = 0
KONS 051355Z 33025G31KT 08/05 A3007 RMK A01 T00790049  RH  083%=      5-min Rain = 0
KONS 051400Z 33023G31KT 08/05 A3007 RMK A01 T00790049  RH  083%=      5-min Rain = 0
KONS 051405Z 33024G31KT 08/05 A3008 RMK A01 T00790048  RH  082%=      5-min Rain = 0
KONS 051410Z 33024G33KT 08/05 A3008 RMK A01 T00790048  RH  082%=      5-min Rain = 0
KONS 051415Z 33025G33KT 08/05 A3009 RMK A01 T00780047  RH  082%=      5-min Rain = 0
KONS 051420Z 33025G33KT 08/05 A3009 RMK A01 T00770046  RH  083%=      5-min Rain = 0
KONS 051425Z 34024G31KT 08/05 A301 RMK A01 T00760046  RH  083%=      5-min Rain = 0
KONS 051430Z 34024G32KT 08/05 A301 RMK A01 T00760045  RH  083%=      5-min Rain = 0
KONS 051435Z 34027G34KT 08/04 A3011 RMK A01 T00750044  RH  082%=      5-min Rain = 0
KONS 051440Z 34026G33KT 08/05 A3011 RMK A01 T00760045  RH  082%=      5-min Rain = 0
KONS 051445Z 34026KT 08/04 A3012 RMK A01 T00760044  RH  082%=      5-min Rain = 0
KONS 051450Z 34027G35KT 08/05 A3012 RMK A01 T00770045  RH  082%=      5-min Rain = 0
KONS 051455Z 34024G33KT 08/05 A3012 RMK A01 T00770046  RH  082%=      5-min Rain = 0
KONS 051500Z 34026G31KT 08/05 A3013 RMK A01 T00770046  RH  082%=      5-min Rain = 0
KONS 051505Z 35026G34KT 08/05 A3013 RMK A01 T00770047  RH  083%=      5-min Rain = 0
KONS 051510Z 35026G34KT 08/05 A3014 RMK A01 T00780048  RH  083%=      5-min Rain = 0
KONS 051515Z 35026G33KT 08/05 A3014 RMK A01 T00780048  RH  083%=      5-min Rain = 0
KONS 051520Z 34025G31KT 08/05 A3014 RMK A01 T00790048  RH  083%=      5-min Rain = 0
KONS 051525Z 35028G36KT 08/05 A3015 RMK A01 T00790048  RH  082%=      5-min Rain = 0
KONS 051530Z 35029G36KT 08/05 A3015 RMK A01 T00790048  RH  083%=      5-min Rain = 0
KONS 051535Z 35028G35KT 08/05 A3015 RMK A01 T00800049  RH  082%=      5-min Rain = 0
KONS 051540Z 35027G33KT 08/05 A3016 RMK A01 T00810049  RH  082%=      5-min Rain = 0
KONS 051545Z 36027G34KT 08/05 A3016 RMK A01 T00830048  RH  080%=      5-min Rain = 0
KONS 051550Z 00026G32KT 09/05 A3016 RMK A01 T00890046  RH  076%=      5-min Rain = 0
KONS 051555Z 01025G32KT 09/04 A3017 RMK A01 T00890038  RH  072%=      5-min Rain = 0
KONS 051600Z 01024G30KT 09/04 A3017 RMK A01 T00880037  RH  072%=      5-min Rain = 0
KONS 051605Z 01022G27KT 09/04 A3017 RMK A01 T00900038  RH  071%=      5-min Rain = 0
KONS 051610Z 00024G29KT 09/04 A3018 RMK A01 T00890037  RH  071%=      5-min Rain = 0
KONS 051615Z 00025G32KT 09/04 A3018 RMK A01 T00850039  RH  074%=      5-min Rain = 0
KONS 051620Z 01023G28KT 08/04 A3018 RMK A01 T00830040  RH  076%=      5-min Rain = 0
KONS 051625Z 00023KT 08/04 A3019 RMK A01 T00820041  RH  077%=      5-min Rain = 0
KONS 051630Z 36023G30KT 08/04 A3019 RMK A01 T00820043  RH  078%=      5-min Rain = 0
KONS 051635Z 36022G28KT 08/04 A3019 RMK A01 T00840043  RH  077%=      5-min Rain = 0
KONS 051640Z 35022G28KT 09/05 A3019 RMK A01 T00860045  RH  077%=      5-min Rain = 0
KONS 051645Z 35021G26KT 09/05 A3019 RMK A01 T00860047  RH  078%=      5-min Rain = 0
KONS 051650Z 35021KT 09/05 A302 RMK A01 T00860045  RH  077%=      5-min Rain = 0
KONS 051655Z 35022G27KT 09/04 A302 RMK A01 T00880044  RH  075%=      5-min Rain = 0
KONS 051700Z 35024KT 09/04 A302 RMK A01 T00890041  RH  073%=      5-min Rain = 0
KONS 051705Z 36025G31KT 09/04 A302 RMK A01 T00910042  RH  073%=      5-min Rain = 0
KONS 051710Z 36025G32KT 10/04 A302 RMK A01 T00950043  RH  071%=      5-min Rain = 0
KONS 051715Z 36027G35KT 10/04 A302 RMK A01 T00970042  RH  070%=      5-min Rain = 0
KONS 051720Z 36028G33KT 10/04 A302 RMK A01 T01020043  RH  068%=      5-min Rain = 0
KONS 051725Z 00027G32KT 10/04 A302 RMK A01 T01000041  RH  068%=      5-min Rain = 0
KONS 051730Z 00026G32KT 10/04 A302 RMK A01 T00970040  RH  069%=      5-min Rain = 0
KONS 051735Z 36026G34KT 10/04 A3021 RMK A01 T00960040  RH  069%=      5-min Rain = 0
KONS 051740Z 00028G36KT 09/04 A3021 RMK A01 T00930040  RH  071%=      5-min Rain = 0
KONS 051745Z 36025G32KT 09/04 A3022 RMK A01 T00940042  RH  072%=      5-min Rain = 0
KONS 051750Z 36024G30KT 10/05 A3021 RMK A01 T00980045  RH  071%=      5-min Rain = 0
KONS 051755Z 35024G30KT 10/04 A3021 RMK A01 T01010042  RH  068%=      5-min Rain = 0
KONS 051800Z 00024G31KT 10/04 A3022 RMK A01 T01010040  RH  067%=      5-min Rain = 0
KONS 051805Z 36025G32KT 10/04 A3022 RMK A01 T01020037  RH  065%=      5-min Rain = 0
KONS 051810Z 00026G32KT 10/04 A3022 RMK A01 T01010038  RH  066%=      5-min Rain = 0
KONS 051815Z 01026G33KT 10/04 A3022 RMK A01 T01010037  RH  066%=      5-min Rain = 0
KONS 051820Z 01025G30KT 10/04 A3022 RMK A01 T01020036  RH  065%=      5-min Rain = 0
KONS 051825Z 01024G33KT 10/04 A3022 RMK A01 T01040037  RH  064%=      5-min Rain = 0
KONS 051830Z 01023G29KT 11/03 A3023 RMK A01 T01060034  RH  062%=      5-min Rain = 0
KONS 051835Z 01024G29KT 11/03 A3023 RMK A01 T01060032  RH  061%=      5-min Rain = 0
KONS 051840Z 01025G31KT 10/03 A3023 RMK A01 T01000031  RH  063%=      5-min Rain = 0
KONS 051845Z 01025G32KT 10/03 A3023 RMK A01 T01020032  RH  063%=      5-min Rain = 0
KONS 051850Z 01026G32KT 11/03 A3023 RMK A01 T01050031  RH  061%=      5-min Rain = 0
KONS 051855Z 02026G33KT 11/03 A3023 RMK A01 T01050032  RH  062%=      5-min Rain = 0
KONS 051900Z 02026G32KT 10/03 A3023 RMK A01 T01030032  RH  062%=      5-min Rain = 0
KONS 051905Z 01024G31KT 10/03 A3023 RMK A01 T01020031  RH  063%=      5-min Rain = 0
KONS 051910Z 01025G30KT 10/03 A3023 RMK A01 T01000030  RH  063%=      5-min Rain = 0
KONS 051915Z 01022G29KT 10/03 A3023 RMK A01 T01010031  RH  063%=      5-min Rain = 0
KONS 051920Z 01025G31KT 10/03 A3023 RMK A01 T00980030  RH  064%=      5-min Rain = 0
KONS 051925Z 01025G30KT 10/03 A3023 RMK A01 T00970031  RH  064%=      5-min Rain = 0
KONS 051930Z 01025G30KT 10/03 A3023 RMK A01 T00950031  RH  066%=      5-min Rain = 0
KONS 051935Z 01024KT 10/03 A3023 RMK A01 T00960033  RH  066%=      5-min Rain = 0
KONS 051940Z 01025G31KT 10/04 A3022 RMK A01 T01010035  RH  065%=      5-min Rain = 0
KONS 051945Z 01026KT 10/04 A3022 RMK A01 T01020035  RH  064%=      5-min Rain = 0
KONS 051950Z 02025G30KT 10/04 A3022 RMK A01 T01020035  RH  064%=      5-min Rain = 0
KONS 051955Z 01026G34KT 10/03 A3022 RMK A01 T01020034  RH  064%=      5-min Rain = 0
KONS 052000Z 02023G29KT 10/04 A3022 RMK A01 T01010036  RH  065%=      5-min Rain = 0
KONS 052005Z 01023G29KT 10/04 A3022 RMK A01 T00990036  RH  066%=      5-min Rain = 0
KONS 052010Z 01023G28KT 10/04 A3022 RMK A01 T00990036  RH  066%=      5-min Rain = 0
KONS 052015Z 02023KT 10/04 A3022 RMK A01 T01010037  RH  066%=      5-min Rain = 0
KONS 052020Z 01022G32KT 10/04 A3022 RMK A01 T00990036  RH  066%=      5-min Rain = 0
KONS 052025Z 01024G30KT 10/04 A3022 RMK A01 T00960036  RH  068%=      5-min Rain = 0
KONS 052030Z 01024KT 10/04 A3021 RMK A01 T01020038  RH  066%=      5-min Rain = 0
KONS 052035Z 00023G29KT 10/04 A3022 RMK A01 T01040039  RH  065%=      5-min Rain = 0
KONS 052040Z 00022G29KT 11/04 A3022 RMK A01 T01090040  RH  064%=      5-min Rain = 0
KONS 052045Z 01022G27KT 11/04 A3022 RMK A01 T01110039  RH  063%=      5-min Rain = 0
KONS 052050Z 01022G28KT 11/04 A3022 RMK A01 T01070036  RH  062%=      5-min Rain = 0
KONS 052055Z 01024G29KT 10/03 A3022 RMK A01 T01020034  RH  064%=      5-min Rain = 0
KONS 052100Z 02024KT 10/03 A3022 RMK A01 T00990034  RH  065%=      5-min Rain = 0
KONS 052105Z 02019G24KT 10/04 A3023 RMK A01 T00990035  RH  066%=      5-min Rain = 0
KONS 052110Z 01023KT 10/04 A3023 RMK A01 T01000035  RH  065%=      5-min Rain = 0
KONS 052115Z 01021G27KT 10/04 A3023 RMK A01 T01020037  RH  065%=      5-min Rain = 0
KONS 052120Z 01021G26KT 10/04 A3023 RMK A01 T01030035  RH  064%=      5-min Rain = 0
KONS 052125Z 02021KT 10/03 A3023 RMK A01 T01030034  RH  064%=      5-min Rain = 0
KONS 052130Z 02022KT 10/03 A3023 RMK A01 T01000032  RH  064%=      5-min Rain = 0
KONS 052135Z 02021KT 10/03 A3024 RMK A01 T00990032  RH  064%=      5-min Rain = 0
KONS 052140Z 02020G27KT 10/03 A3024 RMK A01 T00990033  RH  065%=      5-min Rain = 0
KONS 052145Z 01020G25KT 10/03 A3024 RMK A01 T00990033  RH  065%=      5-min Rain = 0
KONS 052150Z 01019G28KT 10/03 A3024 RMK A01 T01000033  RH  064%=      5-min Rain = 0
KONS 052155Z 00018G23KT 11/04 A3025 RMK A01 T01050036  RH  064%=      5-min Rain = 0
KONS 052200Z 01021G26KT 11/04 A3025 RMK A01 T01060035  RH  063%=      5-min Rain = 0
KONS 052205Z 01017KT 11/04 A3025 RMK A01 T01070036  RH  063%=      5-min Rain = 0
KONS 052210Z 01020G25KT 11/04 A3025 RMK A01 T01080035  RH  062%=      5-min Rain = 0
KONS 052215Z 01020KT 11/04 A3025 RMK A01 T01090035  RH  061%=      5-min Rain = 0
KONS 052220Z 01019G25KT 11/04 A3025 RMK A01 T01100035  RH  061%=      5-min Rain = 0
KONS 052225Z 01020G25KT 11/03 A3025 RMK A01 T01100032  RH  060%=      5-min Rain = 0
KONS 052230Z 01020G25KT 11/03 A3025 RMK A01 T01130033  RH  059%=      5-min Rain = 0
KONS 052235Z 01021KT 12/03 A3025 RMK A01 T01190033  RH  057%=      5-min Rain = 0
KONS 052240Z 01017KT 12/03 A3025 RMK A01 T01190033  RH  056%=      5-min Rain = 0
KONS 052245Z 01019G25KT 12/03 A3025 RMK A01 T01230030  RH  054%=      5-min Rain = 0
KONS 052250Z 01020KT 13/03 A3025 RMK A01 T01250031  RH  054%=      5-min Rain = 0
KONS 052255Z 01020KT 12/03 A3025 RMK A01 T01230030  RH  054%=      5-min Rain = 0
KONS 052300Z 00020G25KT 12/03 A3025 RMK A01 T01210027  RH  054%=      5-min Rain = 0
KONS 052305Z 01020G26KT 13/03 A3025 RMK A01 T01250029  RH  053%=      5-min Rain = 0
KONS 052310Z 02020G27KT 13/03 A3025 RMK A01 T01260029  RH  053%=      5-min Rain = 0
KONS 052315Z 02020G27KT 13/03 A3024 RMK A01 T01250027  RH  052%=      5-min Rain = 0
KONS 052320Z 03018G25KT 12/03 A3024 RMK A01 T01230029  RH  054%=      5-min Rain = 0
KONS 052325Z 02020KT 12/03 A3024 RMK A01 T01200029  RH  054%=      5-min Rain = 0
KONS 052330Z 03018KT 12/03 A3024 RMK A01 T01190029  RH  055%=      5-min Rain = 0
KONS 052335Z 02020KT 12/03 A3024 RMK A01 T01180026  RH  054%=      5-min Rain = 0
KONS 052340Z 02018G23KT 12/03 A3025 RMK A01 T01180026  RH  054%=      5-min Rain = 0
KONS 052345Z 02020KT 12/03 A3025 RMK A01 T01170025  RH  054%=      5-min Rain = 0
KONS 052350Z 02019G24KT 12/03 A3025 RMK A01 T01160025  RH  054%=      5-min Rain = 0
KONS 052355Z 02017KT 12/03 A3024 RMK A01 T01160026  RH  055%=      5-min Rain = 0
KONS 060000Z 03016G21KT 12/03 A3024 RMK A01 T01150026  RH  055%=      5-min Rain = 0
KONS 060005Z 03015KT 11/03 A3024 RMK A01 T01140027  RH  056%=      5-min Rain = 0
KONS 060010Z 03016G21KT 11/03 A3025 RMK A01 T01120026  RH  056%=      5-min Rain = 0
KONS 060015Z 03015KT 11/03 A3025 RMK A01 T01100025  RH  057%=      5-min Rain = 0
KONS 060020Z 03015KT 11/02 A3025 RMK A01 T01080024  RH  057%=      5-min Rain = 0
KONS 060025Z 03013KT 11/02 A3026 RMK A01 T01060023  RH  057%=      5-min Rain = 0
KONS 060030Z 03012KT 10/02 A3026 RMK A01 T01040023  RH  058%=      5-min Rain = 0
KONS 060035Z 02011KT 10/02 A3026 RMK A01 T01010023  RH  059%=      5-min Rain = 0
KONS 060040Z 02010KT 10/02 A3026 RMK A01 T00980022  RH  060%=      5-min Rain = 0
KONS 060045Z 03009KT 10/02 A3026 RMK A01 T00950022  RH  061%=      5-min Rain = 0
KONS 060050Z 03008KT 09/02 A3026 RMK A01 T00920022  RH  063%=      5-min Rain = 0
KONS 060055Z 03008KT 09/02 A3027 RMK A01 T00880021  RH  064%=      5-min Rain = 0
KONS 060100Z 04009KT 09/02 A3027 RMK A01 T00850020  RH  065%=      5-min Rain = 0
KONS 060105Z 04008KT 08/02 A3027 RMK A01 T00820020  RH  066%=      5-min Rain = 0
KONS 060110Z 04008KT 08/02 A3027 RMK A01 T00800019  RH  066%=      5-min Rain = 0
KONS 060115Z 04008KT 08/02 A3027 RMK A01 T00780018  RH  067%=      5-min Rain = 0
KONS 060120Z 04007KT 07/02 A3027 RMK A01 T00740017  RH  068%=      5-min Rain = 0
KONS 060125Z 04007KT 07/02 A3028 RMK A01 T00710016  RH  069%=      5-min Rain = 0
KONS 060130Z 04007KT 07/02 A3028 RMK A01 T00690015  RH  070%=      5-min Rain = 0
KONS 060135Z 04007KT 07/02 A3028 RMK A01 T00680015  RH  070%=      5-min Rain = 0
KONS 060140Z 04006KT 07/02 A3028 RMK A01 T00670015  RH  070%=      5-min Rain = 0
KONS 060145Z 04006KT 07/01 A3028 RMK A01 T00670014  RH  070%=      5-min Rain = 0
KONS 060150Z 04006KT 07/01 A3028 RMK A01 T00680014  RH  069%=      5-min Rain = 0
KONS 060155Z 04006KT 07/01 A3029 RMK A01 T00670014  RH  070%=      5-min Rain = 0
KONS 060200Z 03005KT 07/01 A3029 RMK A01 T00670013  RH  070%=      5-min Rain = 0
KONS 060205Z 02004KT 07/01 A3029 RMK A01 T00680013  RH  069%=      5-min Rain = 0
KONS 060210Z 01004KT 07/01 A3029 RMK A01 T00680014  RH  069%=      5-min Rain = 0
KONS 060215Z 01004KT 07/02 A3029 RMK A01 T00680015  RH  070%=      5-min Rain = 0
KONS 060220Z 00003KT 07/02 A3029 RMK A01 T00670015  RH  071%=      5-min Rain = 0
KONS 060225Z 00003KT 07/02 A303 RMK A01 T00690016  RH  070%=      5-min Rain = 0
KONS 060230Z 01004KT 07/02 A303 RMK A01 T00680015  RH  070%=      5-min Rain = 0
KONS 060235Z 01004KT 07/02 A303 RMK A01 T00700016  RH  069%=      5-min Rain = 0
KONS 060240Z 01004KT 07/02 A303 RMK A01 T00690015  RH  069%=      5-min Rain = 0
KONS 060245Z 01004KT 07/01 A303 RMK A01 T00650014  RH  071%=      5-min Rain = 0
KONS 060250Z 02004KT 06/01 A303 RMK A01 T00630013  RH  071%=      5-min Rain = 0
KONS 060255Z 02004KT 06/01 A3031 RMK A01 T00620013  RH  072%=      5-min Rain = 0
KONS 060300Z 02004KT 06/01 A3031 RMK A01 T00560009  RH  073%=      5-min Rain = 0
KONS 060305Z 02004KT 05/01 A3031 RMK A01 T00540010  RH  074%=      5-min Rain = 0
KONS 060310Z 02004KT 05/01 A3031 RMK A01 T00520008  RH  074%=      5-min Rain = 0
KONS 060315Z 02004KT 05/01 A3031 RMK A01 T00500007  RH  074%=      5-min Rain = 0
KONS 060320Z 02003KT 05/01 A3031 RMK A01 T00500007  RH  075%=      5-min Rain = 0
KONS 060325Z 02003KT 06/01 A3031 RMK A01 T00560012  RH  074%=      5-min Rain = 0
KONS 060330Z 01004KT 06/01 A3032 RMK A01 T00550008  RH  073%=      5-min Rain = 0
KONS 060335Z 01004KT 05/01 A3032 RMK A01 T00500005  RH  074%=      5-min Rain = 0
KONS 060340Z 01004KT 05/00 A3032 RMK A01 T00460003  RH  075%=      5-min Rain = 0
KONS 060345Z 01004KT 04/00 A3032 RMK A01 T003900-0  RH  076%=      5-min Rain = 0
KONS 060350Z 01004KT 04/M00 A3032 RMK A01 T00361002  RH  077%=      5-min Rain = 0
KONS 060355Z 01004KT 03/M00 A3032 RMK A01 T00331002  RH  078%=      5-min Rain = 0
KONS 060400Z 02004KT 03/M00 A3032 RMK A01 T00341001  RH  079%=      5-min Rain = 0
KONS 060405Z 02003KT 04/00 A3033 RMK A01 T00360002  RH  079%=      5-min Rain = 0
KONS 060410Z 03004KT 04/00 A3033 RMK A01 T00390004  RH  079%=      5-min Rain = 0
KONS 060415Z 03004KT 04/00 A3032 RMK A01 T00390004  RH  079%=      5-min Rain = 0
KONS 060420Z 03003KT 04/01 A3033 RMK A01 T00400005  RH  079%=      5-min Rain = 0
KONS 060425Z 03003KT 04/01 A3033 RMK A01 T00420007  RH  079%=      5-min Rain = 0
KONS 060430Z 03003KT 04/01 A3033 RMK A01 T00440009  RH  079%=      5-min Rain = 0
KONS 060435Z 04003KT 04/01 A3033 RMK A01 T00430008  RH  079%=      5-min Rain = 0
KONS 060440Z 04003KT 04/01 A3033 RMK A01 T00420007  RH  079%=      5-min Rain = 0
KONS 060445Z 04004KT 04/01 A3033 RMK A01 T00400007  RH  080%=      5-min Rain = 0
KONS 060450Z 04004KT 04/01 A3033 RMK A01 T00380005  RH  080%=      5-min Rain = 0
KONS 060455Z 04004KT 03/00 A3033 RMK A01 T00320001  RH  081%=      5-min Rain = 0
KONS 060500Z 04004KT 03/00 A3033 RMK A01 T00290001  RH  083%=      5-min Rain = 0
KONS 060505Z 04004KT 03/M00 A3033 RMK A01 T00261002  RH  083%=      5-min Rain = 0
KONS 060510Z 04003KT 02/M01 A3033 RMK A01 T00201008  RH  082%=      5-min Rain = 0
KONS 060515Z 04003KT 02/M01 A3033 RMK A01 T00181011  RH  082%=      5-min Rain = 0
KONS 060520Z 05003KT 02/M01 A3033 RMK A01 T00181011  RH  082%=      5-min Rain = 0
KONS 060525Z 04003KT 02/M00 A3033 RMK A01 T00211004  RH  084%=      5-min Rain = 0
KONS 060530Z 04003KT 02/M01 A3033 RMK A01 T00211006  RH  084%=      5-min Rain = 0
KONS 060535Z 01002KT 02/M01 A3033 RMK A01 T00171006  RH  086%=      5-min Rain = 0
KONS 060540Z 00002KT 02/M01 A3033 RMK A01 T00171005  RH  086%=      5-min Rain = 0
KONS 060545Z 36002KT 01/M01 A3033 RMK A01 T00101012  RH  086%=      5-min Rain = 0
KONS 060550Z 35003KT 00/M02 A3032 RMK A01 T00031018  RH  087%=      5-min Rain = 0
KONS 060555Z 33002KT 00/M02 A3032 RMK A01 T00021016  RH  089%=      5-min Rain = 0

Page generated in 0.1281 seconds.